createdAt,value
2022-09-03T00:00:11.806Z,2.70
2022-09-03T00:02:43.694Z,2.60
2022-09-03T00:05:17.032Z,2.67
2022-09-03T00:08:08.375Z,2.47
2022-09-03T00:10:44.605Z,2.50
2022-09-03T00:13:13.949Z,2.38
2022-09-03T00:15:41.290Z,2.60
2022-09-03T00:18:11.566Z,2.22
2022-09-03T00:20:51.966Z,2.22
2022-09-03T00:23:29.630Z,2.40
2022-09-03T00:26:01.565Z,1.90
2022-09-03T00:28:36.614Z,2.10
2022-09-03T00:31:19.163Z,2.03
2022-09-03T00:33:48.440Z,2.10
2022-09-03T00:36:29.164Z,2.00
2022-09-03T00:38:58.353Z,1.75
2022-09-03T00:41:38.538Z,2.03
2022-09-03T00:44:14.693Z,1.90
2022-09-03T00:46:50.950Z,1.98
2022-09-03T00:49:38.202Z,1.50
2022-09-03T00:52:11.362Z,1.83
2022-09-03T00:54:41.889Z,1.90
2022-09-03T00:57:28.562Z,1.80
2022-09-03T00:59:58.923Z,1.90
2022-09-03T01:02:34.149Z,2.13
2022-09-03T01:05:01.346Z,2.22
2022-09-03T01:07:37.216Z,1.98
2022-09-03T01:10:10.173Z,1.77
2022-09-03T01:12:44.980Z,2.20
2022-09-03T01:15:16.088Z,2.33
2022-09-03T01:17:59.562Z,2.22
2022-09-03T01:20:39.121Z,1.83
2022-09-03T01:23:06.169Z,2.03
2022-09-03T01:25:39.551Z,1.95
2022-09-03T01:28:09.168Z,1.60
2022-09-03T01:30:41.148Z,1.73
2022-09-03T01:33:19.187Z,1.95
2022-09-03T01:35:53.046Z,1.60
2022-09-03T01:38:38.808Z,1.85
2022-09-03T01:41:32.977Z,2.10
2022-09-03T01:44:04.107Z,2.08
2022-09-03T01:46:36.105Z,1.98
2022-09-03T01:49:11.651Z,2.00
2022-09-03T01:51:38.852Z,2.35
2022-09-03T01:54:20.978Z,2.00
2022-09-03T01:57:07.410Z,2.08
2022-09-03T01:59:58.911Z,2.40
2022-09-03T02:02:27.142Z,2.08
2022-09-03T02:05:09.147Z,2.30
2022-09-03T02:07:41.768Z,2.00
2022-09-03T02:10:11.554Z,2.47
2022-09-03T02:12:40.155Z,2.25
2022-09-03T02:15:10.560Z,2.17
2022-09-03T02:17:37.689Z,2.10
2022-09-03T02:20:07.199Z,2.28
2022-09-03T02:22:34.694Z,2.35
2022-09-03T02:25:01.802Z,2.42
2022-09-03T02:27:29.122Z,2.33
2022-09-03T02:29:57.026Z,2.08
2022-09-03T02:32:24.158Z,2.17
2022-09-03T02:34:51.187Z,2.15
2022-09-03T02:37:19.514Z,1.92
2022-09-03T02:39:46.781Z,2.10
2022-09-03T02:42:14.607Z,2.20
2022-09-03T02:44:50.782Z,2.00
2022-09-03T02:47:20.605Z,2.30
2022-09-03T02:49:50.817Z,2.50
2022-09-03T02:52:17.934Z,2.63
2022-09-03T02:54:45.851Z,2.60
2022-09-03T02:57:14.635Z,2.35
2022-09-03T02:59:44.107Z,2.47
2022-09-03T03:02:12.085Z,2.42
2022-09-03T03:04:39.619Z,2.38
2022-09-03T03:07:07.525Z,2.88
2022-09-03T03:09:34.585Z,2.85
2022-09-03T03:12:02.637Z,3.15
2022-09-03T03:14:29.718Z,2.80
2022-09-03T03:16:56.829Z,3.10
2022-09-03T03:19:23.953Z,2.72
2022-09-03T03:21:51.096Z,2.50
2022-09-03T03:24:18.180Z,2.50
2022-09-03T03:26:45.286Z,2.45
2022-09-03T03:29:17.243Z,2.53
2022-09-03T03:31:44.343Z,2.22
2022-09-03T03:34:11.443Z,2.40
2022-09-03T03:36:38.615Z,2.50
2022-09-03T03:39:05.752Z,2.72
2022-09-03T03:41:34.718Z,2.40
2022-09-03T03:44:02.930Z,2.50
2022-09-03T03:46:31.491Z,2.67
2022-09-03T03:48:59.639Z,2.38
2022-09-03T03:51:26.864Z,2.33
2022-09-03T03:53:58.622Z,2.60
2022-09-03T03:56:27.912Z,2.80
2022-09-03T03:58:55.395Z,2.70
2022-09-03T04:01:23.753Z,2.85
2022-09-03T04:03:50.912Z,2.47
2022-09-03T04:06:20.005Z,2.33
2022-09-03T04:08:49.668Z,2.45
2022-09-03T04:11:18.167Z,2.72
2022-09-03T04:13:46.626Z,2.50
2022-09-03T04:16:15.382Z,2.72
2022-09-03T04:18:42.806Z,2.20
2022-09-03T04:21:11.205Z,2.40
2022-09-03T04:23:40.609Z,2.45
2022-09-03T04:26:08.187Z,2.00
2022-09-03T04:28:35.567Z,2.47
2022-09-03T04:31:04.492Z,2.30
2022-09-03T04:33:32.997Z,2.55
2022-09-03T04:36:10.744Z,2.25
2022-09-03T04:38:38.885Z,2.08
2022-09-03T04:41:06.636Z,2.28
2022-09-03T04:43:33.788Z,2.35
2022-09-03T04:46:01.742Z,2.15
2022-09-03T04:48:30.000Z,2.50
2022-09-03T04:51:05.261Z,2.55
2022-09-03T04:53:36.110Z,3.30
2022-09-03T04:56:03.739Z,2.78
2022-09-03T04:58:31.294Z,2.75
2022-09-03T05:00:58.795Z,2.92
2022-09-03T05:03:29.090Z,2.50
2022-09-03T05:05:56.998Z,2.05
2022-09-03T05:08:24.240Z,2.22
2022-09-03T05:10:58.290Z,2.22
2022-09-03T05:13:25.390Z,2.05
2022-09-03T05:15:52.493Z,2.30
2022-09-03T05:18:19.610Z,2.10
2022-09-03T05:20:46.734Z,2.50
2022-09-03T05:23:14.327Z,2.58
2022-09-03T05:25:41.386Z,2.30
2022-09-03T05:28:08.907Z,2.42
2022-09-03T05:30:36.487Z,2.25
2022-09-03T05:33:05.998Z,2.25
2022-09-03T05:35:34.948Z,2.67
2022-09-03T05:38:02.179Z,2.30
2022-09-03T05:40:29.455Z,3.05
2022-09-03T05:42:58.497Z,2.50
2022-09-03T05:45:25.588Z,2.63
2022-09-03T05:47:52.738Z,2.20
2022-09-03T05:50:19.893Z,2.38
2022-09-03T05:52:47.062Z,2.47
2022-09-03T05:55:14.149Z,2.10
2022-09-03T05:57:43.388Z,1.92
2022-09-03T06:00:10.944Z,1.92
2022-09-03T06:02:38.120Z,1.73
2022-09-03T06:05:05.384Z,2.00
2022-09-03T06:07:32.854Z,1.90
2022-09-03T06:09:59.885Z,1.80
2022-09-03T06:12:27.549Z,1.80
2022-09-03T06:14:54.599Z,1.95
2022-09-03T06:17:23.390Z,1.50
2022-09-03T06:19:50.474Z,1.95
2022-09-03T06:22:17.557Z,1.63
2022-09-03T06:24:44.635Z,1.60
2022-09-03T06:27:11.734Z,1.50
2022-09-03T06:29:39.801Z,1.50
2022-09-03T06:32:06.991Z,1.50
2022-09-03T06:34:34.126Z,1.58
2022-09-03T06:37:01.581Z,1.75
2022-09-03T06:39:28.741Z,1.45
2022-09-03T06:41:55.894Z,1.65
2022-09-03T06:44:22.932Z,1.52
2022-09-03T06:46:53.424Z,1.50
2022-09-03T06:49:20.826Z,1.35
2022-09-03T06:51:47.967Z,1.80
2022-09-03T06:54:15.854Z,1.60
2022-09-03T06:56:42.945Z,1.30
2022-09-03T06:59:11.663Z,1.42
2022-09-03T07:01:43.644Z,1.60
2022-09-03T07:04:12.846Z,1.60
2022-09-03T07:06:40.785Z,1.30
2022-09-03T07:09:08.453Z,1.60
2022-09-03T07:11:35.940Z,1.85
2022-09-03T07:14:06.428Z,2.00
2022-09-03T07:16:34.967Z,1.40
2022-09-03T07:19:03.586Z,1.85
2022-09-03T07:21:31.389Z,1.40
2022-09-03T07:23:59.884Z,1.90
2022-09-03T07:26:28.292Z,1.60
2022-09-03T07:28:55.951Z,1.02
2022-09-03T07:31:26.995Z,1.30
2022-09-03T07:33:55.625Z,1.30
2022-09-03T07:36:23.514Z,1.30
2022-09-03T07:38:50.625Z,1.20
2022-09-03T07:41:27.083Z,1.20
2022-09-03T07:43:56.931Z,1.30
2022-09-03T07:46:25.285Z,1.30
2022-09-03T07:48:53.179Z,1.40
2022-09-03T07:51:21.118Z,1.40
2022-09-03T07:53:49.055Z,1.20
2022-09-03T07:56:16.332Z,1.40
2022-09-03T07:58:43.537Z,1.15
2022-09-03T08:01:12.180Z,1.27
2022-09-03T08:03:43.006Z,1.30
2022-09-03T08:06:10.407Z,1.30
2022-09-03T08:08:37.987Z,1.50
2022-09-03T08:11:12.216Z,1.27
2022-09-03T08:13:40.725Z,1.52
2022-09-03T08:16:08.823Z,1.40
2022-09-03T08:18:39.333Z,1.40
2022-09-03T08:21:07.540Z,1.40
2022-09-03T08:23:37.813Z,1.38
2022-09-03T08:26:04.994Z,1.70
2022-09-03T08:28:34.238Z,1.60
2022-09-03T08:31:21.327Z,1.50
2022-09-03T08:33:50.766Z,1.67
2022-09-03T08:36:25.369Z,1.55
2022-09-03T08:38:55.087Z,1.40
2022-09-03T08:41:30.857Z,1.70
2022-09-03T08:44:03.224Z,1.30
2022-09-03T08:46:39.485Z,1.38
2022-09-03T08:49:07.765Z,1.20
2022-09-03T08:51:40.231Z,1.27
2022-09-03T08:54:09.848Z,1.30
2022-09-03T08:56:39.197Z,1.30
2022-09-03T08:59:06.360Z,1.50
2022-09-03T09:01:54.951Z,1.45
2022-09-03T09:04:28.930Z,1.30
2022-09-03T09:06:56.060Z,1.40
2022-09-03T09:09:49.885Z,1.90
2022-09-03T09:12:45.861Z,1.30
2022-09-03T09:15:13.953Z,1.60
2022-09-03T09:17:59.772Z,1.35
2022-09-03T09:20:33.413Z,1.67
2022-09-03T09:23:08.468Z,1.40
2022-09-03T09:25:42.395Z,2.00
2022-09-03T09:28:31.786Z,1.90
2022-09-03T09:30:58.925Z,1.70
2022-09-03T09:33:26.187Z,1.67
2022-09-03T09:35:53.325Z,1.50
2022-09-03T09:38:30.639Z,1.50
2022-09-03T09:40:59.750Z,1.40
2022-09-03T09:43:26.864Z,1.63
2022-09-03T09:45:54.619Z,1.80
2022-09-03T09:48:23.980Z,1.20
2022-09-03T09:50:51.147Z,2.00
2022-09-03T09:53:21.420Z,1.75
2022-09-03T09:55:51.551Z,1.42
2022-09-03T09:58:20.422Z,1.30
2022-09-03T10:01:13.986Z,1.42
2022-09-03T10:03:48.684Z,1.40
2022-09-03T10:06:35.175Z,1.75
2022-09-03T10:09:08.157Z,1.70
2022-09-03T10:11:38.825Z,1.60
2022-09-03T10:14:09.612Z,1.42
2022-09-03T10:16:39.599Z,1.25
2022-09-03T10:19:25.236Z,1.42
2022-09-03T10:21:59.492Z,2.45
2022-09-03T10:24:26.507Z,1.50
2022-09-03T10:26:53.593Z,1.80
2022-09-03T10:29:22.405Z,2.22
2022-09-03T10:32:04.125Z,2.03
2022-09-03T10:34:34.095Z,2.30
2022-09-03T10:37:16.130Z,1.88
2022-09-03T10:40:03.564Z,2.38
2022-09-03T10:42:52.942Z,1.70
2022-09-03T10:45:23.961Z,1.60
2022-09-03T10:48:06.774Z,2.00
2022-09-03T10:50:39.890Z,1.52
2022-09-03T10:53:12.758Z,1.27
2022-09-03T10:55:39.841Z,1.52
2022-09-03T10:58:11.211Z,1.63
2022-09-03T11:00:41.861Z,1.70
2022-09-03T11:03:27.983Z,2.40
2022-09-03T11:05:59.833Z,1.42
2022-09-03T11:08:26.915Z,2.08
2022-09-03T11:10:56.431Z,2.47
2022-09-03T11:13:35.693Z,1.60
2022-09-03T11:16:06.345Z,1.95
2022-09-03T11:18:49.409Z,1.70
2022-09-03T11:21:19.680Z,1.70
2022-09-03T11:23:48.412Z,1.25
2022-09-03T11:26:24.020Z,1.58
2022-09-03T11:29:23.781Z,1.50
2022-09-03T11:32:08.627Z,1.50
2022-09-03T11:34:49.870Z,1.20
2022-09-03T11:37:24.193Z,2.30
2022-09-03T11:39:56.592Z,1.70
2022-09-03T11:42:31.286Z,2.05
2022-09-03T11:45:13.844Z,1.80
2022-09-03T11:47:42.953Z,2.40
2022-09-03T11:50:29.643Z,2.35
2022-09-03T11:53:24.323Z,1.73
2022-09-03T11:55:56.498Z,0.90
2022-09-03T11:58:31.731Z,1.73
2022-09-03T12:00:59.448Z,1.27
2022-09-03T12:03:28.838Z,1.77
2022-09-03T12:06:11.019Z,1.70
2022-09-03T12:08:44.142Z,1.60
2022-09-03T12:11:13.912Z,1.60
2022-09-03T12:13:59.676Z,2.40
2022-09-03T12:16:29.869Z,1.85
2022-09-03T12:19:01.329Z,2.25
2022-09-03T12:21:28.448Z,1.90
2022-09-03T12:23:58.293Z,1.25
2022-09-03T12:26:27.403Z,1.70
2022-09-03T12:28:55.952Z,1.38
2022-09-03T12:31:29.681Z,2.28
2022-09-03T12:33:59.335Z,1.83
2022-09-03T12:36:27.460Z,1.95
2022-09-03T12:39:11.504Z,2.60
2022-09-03T12:41:39.791Z,1.90
2022-09-03T12:44:06.925Z,2.33
2022-09-03T12:46:34.908Z,1.90
2022-09-03T12:52:04.738Z,1.98
2022-09-03T12:54:33.573Z,1.85
2022-09-03T12:57:01.040Z,2.40
2022-09-03T12:59:29.576Z,1.80
2022-09-03T13:01:58.933Z,2.17
2022-09-03T13:04:29.061Z,2.53
2022-09-03T13:07:01.247Z,2.53
2022-09-03T13:09:30.057Z,1.77
2022-09-03T13:11:59.129Z,2.13
2022-09-03T13:14:27.384Z,1.75
2022-09-03T13:17:14.796Z,1.67
2022-09-03T13:19:50.893Z,1.70
2022-09-03T13:22:26.485Z,2.42
2022-09-03T13:24:56.356Z,2.50
2022-09-03T13:27:23.384Z,2.90
2022-09-03T13:29:54.915Z,2.10
2022-09-03T13:32:39.868Z,2.55
2022-09-03T13:35:06.943Z,2.20
2022-09-03T13:37:33.988Z,2.05
2022-09-03T13:40:05.764Z,1.83
2022-09-03T13:42:45.289Z,2.30
2022-09-03T13:45:36.153Z,1.98
2022-09-03T13:48:28.148Z,1.77
2022-09-03T13:51:04.010Z,2.10
2022-09-03T13:53:32.237Z,2.90
2022-09-03T13:56:06.262Z,2.28
2022-09-03T13:58:43.761Z,2.30
2022-09-03T14:01:16.302Z,2.80
2022-09-03T14:03:51.376Z,1.73
2022-09-03T14:06:40.338Z,2.55
2022-09-03T14:09:16.499Z,2.50
2022-09-03T14:11:54.425Z,2.00
2022-09-03T14:14:30.977Z,3.00
2022-09-03T14:17:06.398Z,2.40
2022-09-03T14:19:37.246Z,2.40
2022-09-03T14:22:19.452Z,2.90
2022-09-03T14:25:21.962Z,2.45
2022-09-03T14:27:50.871Z,2.80
2022-09-03T14:30:36.488Z,2.55
2022-09-03T14:33:06.688Z,2.60
2022-09-03T14:35:45.735Z,1.92
2022-09-03T14:38:31.724Z,2.92
2022-09-03T14:40:58.780Z,4.38
2022-09-03T14:43:31.860Z,1.95
2022-09-03T14:46:10.903Z,3.13
2022-09-03T14:48:56.256Z,3.20
2022-09-03T14:51:32.366Z,2.45
2022-09-03T14:54:02.232Z,1.90
2022-09-03T14:56:38.510Z,2.45
2022-09-03T14:59:15.822Z,2.80
2022-09-03T15:01:43.853Z,2.47
2022-09-03T15:04:13.816Z,2.38
2022-09-03T15:06:40.877Z,2.35
2022-09-03T15:09:26.750Z,2.80
2022-09-03T15:11:58.088Z,2.13
2022-09-03T15:14:47.806Z,2.65
2022-09-03T15:17:33.299Z,2.90
2022-09-03T15:20:07.120Z,2.45
2022-09-03T15:22:37.753Z,2.40
2022-09-03T15:25:07.628Z,1.80
2022-09-03T15:27:46.261Z,2.25
2022-09-03T15:30:16.450Z,1.75
2022-09-03T15:32:43.518Z,2.33
2022-09-03T15:35:30.622Z,2.15
2022-09-03T15:38:13.796Z,2.17
2022-09-03T15:40:49.977Z,2.67
2022-09-03T15:43:22.382Z,2.13
2022-09-03T15:45:49.591Z,2.53
2022-09-03T15:48:25.916Z,2.10
2022-09-03T15:50:59.384Z,1.90
2022-09-03T15:53:34.110Z,1.98
2022-09-03T15:56:13.968Z,1.90
2022-09-03T15:58:44.166Z,1.90
2022-09-03T16:01:21.942Z,1.85
2022-09-03T16:04:01.116Z,1.90
2022-09-03T16:06:47.812Z,2.17
2022-09-03T16:09:25.832Z,2.00
2022-09-03T16:11:57.487Z,1.83
2022-09-03T16:14:39.430Z,2.50
2022-09-03T16:17:25.005Z,1.90
2022-09-03T16:19:59.594Z,2.42
2022-09-03T16:22:34.658Z,2.35
2022-09-03T16:25:09.331Z,1.90
2022-09-03T16:27:39.523Z,2.38
2022-09-03T16:30:11.578Z,2.08
2022-09-03T16:32:59.156Z,2.70
2022-09-03T16:35:29.406Z,2.15
2022-09-03T16:38:06.580Z,2.28
2022-09-03T16:40:45.930Z,2.40
2022-09-03T16:43:39.409Z,2.50
2022-09-03T16:46:20.957Z,2.70
2022-09-03T16:49:11.755Z,2.40
2022-09-03T16:51:48.520Z,2.30
2022-09-03T16:54:36.925Z,2.50
2022-09-03T16:57:19.571Z,2.40
2022-09-03T16:59:55.746Z,2.65
2022-09-03T17:02:41.043Z,2.35
2022-09-03T17:05:23.950Z,2.70
2022-09-03T17:08:12.600Z,2.88
2022-09-03T17:10:56.022Z,2.40
2022-09-03T17:13:32.048Z,2.42
2022-09-03T17:16:08.035Z,2.80
2022-09-03T17:18:44.066Z,2.45
2022-09-03T17:21:13.890Z,2.75
2022-09-03T17:23:52.675Z,3.28
2022-09-03T17:26:31.630Z,2.67
2022-09-03T17:29:08.451Z,2.95
2022-09-03T17:31:50.875Z,3.05
2022-09-03T17:34:21.187Z,2.67
2022-09-03T17:36:57.158Z,2.65
2022-09-03T17:39:45.288Z,2.70
2022-09-03T17:42:16.970Z,2.97
2022-09-03T17:45:08.840Z,3.03
2022-09-03T17:47:42.164Z,2.40
2022-09-03T17:50:12.010Z,3.30
2022-09-03T17:52:40.200Z,3.33
2022-09-03T17:55:28.578Z,3.45
2022-09-03T17:58:02.173Z,2.78
2022-09-03T18:00:52.533Z,3.50
2022-09-03T18:03:23.463Z,2.38
2022-09-03T18:06:07.076Z,3.03
2022-09-03T18:08:44.289Z,7.22
2022-09-03T18:11:20.387Z,4.63
2022-09-03T18:13:47.571Z,3.67
2022-09-03T18:16:28.560Z,3.10
2022-09-03T18:19:18.217Z,3.22
2022-09-03T18:22:05.568Z,3.28
2022-09-03T18:25:00.418Z,3.70
2022-09-03T18:27:58.035Z,3.50
2022-09-03T18:30:44.047Z,3.30
2022-09-03T18:33:32.507Z,3.30
2022-09-03T18:36:18.484Z,3.53
2022-09-03T18:39:04.268Z,3.22
2022-09-03T18:42:04.966Z,2.67
2022-09-03T18:45:19.854Z,3.25
2022-09-03T18:48:17.955Z,3.20
2022-09-03T18:51:09.816Z,2.90
2022-09-03T18:54:08.295Z,2.72
2022-09-03T18:56:54.291Z,2.50
2022-09-03T18:59:47.341Z,3.20
2022-09-03T19:02:45.006Z,3.03
2022-09-03T19:05:39.430Z,2.67
2022-09-03T19:08:33.940Z,2.80
2022-09-03T19:11:37.046Z,2.72
2022-09-03T19:14:26.627Z,3.42
2022-09-03T19:17:28.823Z,3.65
2022-09-03T19:20:33.074Z,2.95
2022-09-03T19:23:18.904Z,2.40
2022-09-03T19:26:04.725Z,2.55
2022-09-03T19:28:50.673Z,2.30
2022-09-03T19:31:36.756Z,2.75
2022-09-03T19:34:28.659Z,2.50
2022-09-03T19:37:33.041Z,2.40
2022-09-03T19:40:21.414Z,2.40
2022-09-03T19:43:25.899Z,2.20
2022-09-03T19:46:11.975Z,2.05
2022-09-03T19:49:00.695Z,2.10
2022-09-03T19:52:00.846Z,2.30
2022-09-03T19:54:47.308Z,2.15
2022-09-03T19:57:34.672Z,2.53
2022-09-03T20:00:29.458Z,2.50
2022-09-03T20:03:19.661Z,2.22
2022-09-03T20:06:10.786Z,2.33
2022-09-03T20:08:56.971Z,2.10
2022-09-03T20:11:25.483Z,2.20
2022-09-03T20:14:11.249Z,2.40
2022-09-03T20:16:53.422Z,2.05
2022-09-03T20:19:23.600Z,2.17
2022-09-03T20:21:56.580Z,2.20
2022-09-03T20:24:25.847Z,2.30
2022-09-03T20:26:55.669Z,2.10
2022-09-03T20:29:34.556Z,2.10
2022-09-03T20:32:07.414Z,2.60
2022-09-03T20:34:37.396Z,2.10
2022-09-03T20:37:25.843Z,2.35
2022-09-03T20:40:08.033Z,2.20
2022-09-03T20:42:50.168Z,2.33
2022-09-03T20:45:32.830Z,2.10
2022-09-03T20:48:16.937Z,2.45
2022-09-03T20:50:56.449Z,2.15
2022-09-03T20:53:26.694Z,2.55
2022-09-03T20:55:57.811Z,2.13
2022-09-03T20:58:31.771Z,1.90
2022-09-03T21:00:59.483Z,2.30
2022-09-03T21:03:31.080Z,2.70
2022-09-03T21:06:07.180Z,2.70
2022-09-03T21:08:37.054Z,2.13
2022-09-03T21:11:10.812Z,2.65
2022-09-03T21:13:54.097Z,2.80
2022-09-03T21:16:30.504Z,2.70
2022-09-03T21:18:58.135Z,2.25
2022-09-03T21:21:36.035Z,2.67
2022-09-03T21:24:06.798Z,2.38
2022-09-03T21:26:39.880Z,2.65
2022-09-03T21:29:12.494Z,2.88
2022-09-03T21:32:03.349Z,2.97
2022-09-03T21:34:32.122Z,3.05
2022-09-03T21:37:00.809Z,3.13
2022-09-03T21:39:31.689Z,3.00
2022-09-03T21:42:03.211Z,2.90
2022-09-03T21:44:43.348Z,3.17
2022-09-03T21:47:11.341Z,3.03
2022-09-03T21:49:57.349Z,2.88
2022-09-03T21:52:29.608Z,2.40
2022-09-03T21:54:56.794Z,3.35
2022-09-03T21:57:47.006Z,2.92
2022-09-03T22:00:18.910Z,3.38
2022-09-03T22:02:49.406Z,2.90
2022-09-03T22:05:18.717Z,3.17
2022-09-03T22:07:45.755Z,3.08
2022-09-03T22:10:31.678Z,2.90
2022-09-03T22:13:17.941Z,3.05
2022-09-03T22:15:50.551Z,3.67
2022-09-03T22:18:23.861Z,3.15
2022-09-03T22:21:12.593Z,3.20
2022-09-03T22:23:55.462Z,3.30
2022-09-03T22:26:32.217Z,3.00
2022-09-03T22:29:07.916Z,3.10
2022-09-03T22:31:40.929Z,3.47
2022-09-03T22:34:14.308Z,3.40
2022-09-03T22:36:42.331Z,3.60
2022-09-03T22:39:15.181Z,3.63
2022-09-03T22:42:00.270Z,3.42
2022-09-03T22:44:32.029Z,3.60
2022-09-03T22:47:15.352Z,3.58
2022-09-03T22:49:48.290Z,3.97
2022-09-03T22:52:26.146Z,3.72
2022-09-03T22:55:26.004Z,3.80
2022-09-03T22:58:05.867Z,3.45
2022-09-03T23:00:39.304Z,3.63
2022-09-03T23:03:12.418Z,3.40
2022-09-03T23:05:42.160Z,3.80
2022-09-03T23:08:11.391Z,3.90
2022-09-03T23:10:59.486Z,4.18
2022-09-03T23:13:29.641Z,3.42
2022-09-03T23:16:01.755Z,3.42
2022-09-03T23:18:30.850Z,3.60
2022-09-03T23:21:22.045Z,3.47
2022-09-03T23:23:53.885Z,3.60
2022-09-03T23:26:37.089Z,3.75
2022-09-03T23:29:10.375Z,4.18
2022-09-03T23:31:38.497Z,3.88
2022-09-03T23:34:05.784Z,3.63
2022-09-03T23:37:22.331Z,3.97
2022-09-03T23:40:06.092Z,4.00
2022-09-03T23:42:45.108Z,3.88
2022-09-03T23:45:18.066Z,4.45
2022-09-03T23:47:54.496Z,3.92
2022-09-03T23:50:59.948Z,4.22
2022-09-03T23:53:26.994Z,4.00
2022-09-03T23:56:05.731Z,4.32
2022-09-03T23:58:35.573Z,3.92
